sensor_id;sensor_type;location;lat;lon;timestamp;pressure;altitude;pressure_sealevel;temperature;humidity
6028;BME280;3042;43.194;27.646;2023-05-23T00:00:06;101151.78;;;23.17;100.00
6028;BME280;3042;43.194;27.646;2023-05-23T00:02:33;101157.94;;;23.04;100.00
6028;BME280;3042;43.194;27.646;2023-05-23T00:05:00;101165.84;;;23.05;100.00
6028;BME280;3042;43.194;27.646;2023-05-23T00:07:28;101149.16;;;23.18;100.00
6028;BME280;3042;43.194;27.646;2023-05-23T00:09:57;101143.00;;;23.23;100.00
6028;BME280;3042;43.194;27.646;2023-05-23T00:12:24;101152.66;;;23.10;100.00
6028;BME280;3042;43.194;27.646;2023-05-23T00:14:51;101150.94;;;23.09;100.00
6028;BME280;3042;43.194;27.646;2023-05-23T00:17:20;101158.81;;;22.95;100.00
6028;BME280;3042;43.194;27.646;2023-05-23T00:19:50;101161.41;;;22.84;100.00
6028;BME280;3042;43.194;27.646;2023-05-23T00:22:17;101161.34;;;22.32;100.00
6028;BME280;3042;43.194;27.646;2023-05-23T00:24:44;101167.31;;;21.96;100.00
6028;BME280;3042;43.194;27.646;2023-05-23T00:27:11;101154.22;;;22.14;100.00
6028;BME280;3042;43.194;27.646;2023-05-23T00:29:38;101150.75;;;22.20;100.00
6028;BME280;3042;43.194;27.646;2023-05-23T00:32:06;101158.69;;;22.27;100.00
6028;BME280;3042;43.194;27.646;2023-05-23T00:34:34;101148.19;;;22.43;100.00
6028;BME280;3042;43.194;27.646;2023-05-23T00:37:03;101052.38;;;21.88;100.00
6028;BME280;3042;43.194;27.646;2023-05-23T00:39:30;101152.63;;;22.45;100.00
6028;BME280;3042;43.194;27.646;2023-05-23T00:41:58;101164.88;;;22.37;100.00
6028;BME280;3042;43.194;27.646;2023-05-23T00:44:30;101153.50;;;22.84;100.00
6028;BME280;3042;43.194;27.646;2023-05-23T00:46:57;101124.50;;;22.87;100.00
6028;BME280;3042;43.194;27.646;2023-05-23T00:49:25;101133.31;;;23.25;100.00
6028;BME280;3042;43.194;27.646;2023-05-23T00:51:55;101135.91;;;23.43;100.00
6028;BME280;3042;43.194;27.646;2023-05-23T00:54:25;101126.22;;;23.53;100.00
6028;BME280;3042;43.194;27.646;2023-05-23T00:56:53;101124.44;;;23.55;100.00
6028;BME280;3042;43.194;27.646;2023-05-23T00:59:21;101127.13;;;23.47;100.00
6028;BME280;3042;43.194;27.646;2023-05-23T01:01:50;101125.34;;;23.43;100.00
6028;BME280;3042;43.194;27.646;2023-05-23T01:04:18;101068.31;;;23.16;100.00
6028;BME280;3042;43.194;27.646;2023-05-23T01:06:46;101120.06;;;23.60;100.00
6028;BME280;3042;43.194;27.646;2023-05-23T01:09:16;101054.25;;;23.14;100.00
6028;BME280;3042;43.194;27.646;2023-05-23T01:12:00;101120.06;;;23.55;100.00
6028;BME280;3042;43.194;27.646;2023-05-23T01:14:34;101126.19;;;23.65;100.00
6028;BME280;3042;43.194;27.646;2023-05-23T01:17:10;101120.91;;;23.64;100.00
6028;BME280;3042;43.194;27.646;2023-05-23T01:19:48;101122.63;;;23.69;100.00
6028;BME280;3042;43.194;27.646;2023-05-23T01:22:22;101091.00;;;23.63;100.00
6028;BME280;3042;43.194;27.646;2023-05-23T01:25:08;101108.53;;;23.86;100.00
6028;BME280;3042;43.194;27.646;2023-05-23T01:27:44;101117.38;;;23.75;100.00
6028;BME280;3042;43.194;27.646;2023-05-23T01:30:18;101106.75;;;23.88;100.00
6028;BME280;3042;43.194;27.646;2023-05-23T01:32:47;101106.75;;;23.91;100.00
6028;BME280;3042;43.194;27.646;2023-05-23T01:35:25;101110.25;;;23.96;100.00
6028;BME280;3042;43.194;27.646;2023-05-23T01:37:53;101113.81;;;23.86;100.00
6028;BME280;3042;43.194;27.646;2023-05-23T01:40:20;101119.06;;;23.92;100.00
6028;BME280;3042;43.194;27.646;2023-05-23T01:42:50;101124.31;;;23.95;100.00
6028;BME280;3042;43.194;27.646;2023-05-23T01:45:17;101113.78;;;23.92;100.00
6028;BME280;3042;43.194;27.646;2023-05-23T01:47:47;101112.00;;;23.97;100.00
6028;BME280;3042;43.194;27.646;2023-05-23T01:50:16;101111.13;;;23.95;100.00
6028;BME280;3042;43.194;27.646;2023-05-23T01:52:45;101108.50;;;23.98;100.00
6028;BME280;3042;43.194;27.646;2023-05-23T01:55:13;101106.72;;;24.00;100.00
6028;BME280;3042;43.194;27.646;2023-05-23T01:57:45;101105.78;;;24.04;100.00
6028;BME280;3042;43.194;27.646;2023-05-23T02:00:16;101111.94;;;24.06;100.00
6028;BME280;3042;43.194;27.646;2023-05-23T02:02:44;101115.56;;;23.93;100.00
6028;BME280;3042;43.194;27.646;2023-05-23T02:05:11;101112.94;;;23.88;100.00
6028;BME280;3042;43.194;27.646;2023-05-23T02:07:38;101119.09;;;23.83;100.00
6028;BME280;3042;43.194;27.646;2023-05-23T02:10:07;101122.63;;;23.69;100.00
6028;BME280;3042;43.194;27.646;2023-05-23T02:12:35;101144.72;;;23.42;100.00
6028;BME280;3042;43.194;27.646;2023-05-23T02:15:02;101142.06;;;23.41;100.00
6028;BME280;3042;43.194;27.646;2023-05-23T02:17:31;101149.13;;;23.35;100.00
6028;BME280;3042;43.194;27.646;2023-05-23T02:19:58;101133.28;;;23.51;100.00
6028;BME280;3042;43.194;27.646;2023-05-23T02:22:26;101135.09;;;23.27;100.00
6028;BME280;3042;43.194;27.646;2023-05-23T02:24:53;101118.34;;;23.42;100.00
6028;BME280;3042;43.194;27.646;2023-05-23T02:27:20;101120.94;;;23.50;100.00
6028;BME280;3042;43.194;27.646;2023-05-23T02:29:47;101128.00;;;23.34;100.00
6028;BME280;3042;43.194;27.646;2023-05-23T02:32:14;101135.94;;;23.25;100.00
6028;BME280;3042;43.194;27.646;2023-05-23T02:34:43;101125.38;;;23.42;100.00
6028;BME280;3042;43.194;27.646;2023-05-23T02:37:12;101143.88;;;23.09;100.00
6028;BME280;3042;43.194;27.646;2023-05-23T02:39:39;101145.59;;;22.96;100.00
6028;BME280;3042;43.194;27.646;2023-05-23T02:42:06;101153.50;;;22.87;100.00
6028;BME280;3042;43.194;27.646;2023-05-23T02:44:33;101129.78;;;22.53;100.00
6028;BME280;3042;43.194;27.646;2023-05-23T02:47:00;101155.28;;;22.84;100.00
6028;BME280;3042;43.194;27.646;2023-05-23T02:49:28;101158.78;;;22.81;100.00
6028;BME280;3042;43.194;27.646;2023-05-23T02:51:56;101164.03;;;22.55;100.00
6028;BME280;3042;43.194;27.646;2023-05-23T02:54:23;101157.88;;;22.64;100.00
6028;BME280;3042;43.194;27.646;2023-05-23T02:56:51;101152.63;;;22.61;100.00
6028;BME280;3042;43.194;27.646;2023-05-23T02:59:19;101155.28;;;22.81;100.00
6028;BME280;3042;43.194;27.646;2023-05-23T03:01:47;101144.75;;;23.04;100.00
6028;BME280;3042;43.194;27.646;2023-05-23T03:04:14;101144.75;;;22.99;100.00
6028;BME280;3042;43.194;27.646;2023-05-23T03:06:41;101142.09;;;23.22;100.00
6028;BME280;3042;43.194;27.646;2023-05-23T03:09:10;101135.94;;;23.35;100.00
6028;BME280;3042;43.194;27.646;2023-05-23T03:11:37;101143.84;;;23.26;100.00
6028;BME280;3042;43.194;27.646;2023-05-23T03:14:04;101131.53;;;23.41;100.00
6028;BME280;3042;43.194;27.646;2023-05-23T03:16:32;101131.47;;;23.53;100.00
6028;BME280;3042;43.194;27.646;2023-05-23T03:18:59;100974.38;;;22.63;100.00
6028;BME280;3042;43.194;27.646;2023-05-23T03:21:26;101119.09;;;23.83;100.00
6028;BME280;3042;43.194;27.646;2023-05-23T03:23:53;101119.00;;;24.07;100.00
6028;BME280;3042;43.194;27.646;2023-05-23T03:26:22;101117.09;;;24.31;100.00
6028;BME280;3042;43.194;27.646;2023-05-23T03:28:49;101109.06;;;24.52;100.00
6028;BME280;3042;43.194;27.646;2023-05-23T03:31:17;100973.09;;;23.71;100.00
6028;BME280;3042;43.194;27.646;2023-05-23T03:33:44;101135.53;;;24.38;100.00
6028;BME280;3042;43.194;27.646;2023-05-23T03:36:11;101118.69;;;24.59;100.00
6028;BME280;3042;43.194;27.646;2023-05-23T03:38:38;101115.00;;;24.79;100.00
6028;BME280;3042;43.194;27.646;2023-05-23T03:41:05;101118.56;;;24.78;100.00
6028;BME280;3042;43.194;27.646;2023-05-23T03:43:34;101131.09;;;24.45;100.00
6028;BME280;3042;43.194;27.646;2023-05-23T03:46:01;101131.94;;;24.55;100.00
6028;BME280;3042;43.194;27.646;2023-05-23T03:48:28;101142.72;;;24.16;100.00
6028;BME280;3042;43.194;27.646;2023-05-23T03:50:55;101139.03;;;24.39;100.00
6028;BME280;3042;43.194;27.646;2023-05-23T03:53:22;101135.59;;;24.29;100.00
6028;BME280;3042;43.194;27.646;2023-05-23T03:55:50;101143.59;;;24.15;100.00
6028;BME280;3042;43.194;27.646;2023-05-23T03:58:18;101152.41;;;24.11;100.00
6028;BME280;3042;43.194;27.646;2023-05-23T04:00:47;101146.22;;;24.20;100.00
6028;BME280;3042;43.194;27.646;2023-05-23T04:03:15;101023.34;;;23.50;100.00
6028;BME280;3042;43.194;27.646;2023-05-23T04:05:42;101149.00;;;23.85;100.00
6028;BME280;3042;43.194;27.646;2023-05-23T04:08:09;101169.25;;;23.70;100.00
6028;BME280;3042;43.194;27.646;2023-05-23T04:10:36;101162.22;;;23.85;100.00
6028;BME280;3042;43.194;27.646;2023-05-23T04:13:03;101167.47;;;23.83;100.00
6028;BME280;3042;43.194;27.646;2023-05-23T04:15:31;101168.38;;;23.82;100.00
6028;BME280;3042;43.194;27.646;2023-05-23T04:18:01;101160.41;;;23.96;100.00
6028;BME280;3042;43.194;27.646;2023-05-23T04:20:29;101141.81;;;24.23;100.00
6028;BME280;3042;43.194;27.646;2023-05-23T04:22:56;101150.50;;;24.38;100.00
6028;BME280;3042;43.194;27.646;2023-05-23T04:25:28;101161.19;;;24.19;100.00
6028;BME280;3042;43.194;27.646;2023-05-23T04:27:58;101148.72;;;24.49;100.00
6028;BME280;3042;43.194;27.646;2023-05-23T04:30:26;101162.81;;;24.40;100.00
6028;BME280;3042;43.194;27.646;2023-05-23T04:32:55;101150.31;;;24.73;100.00
6028;BME280;3042;43.194;27.646;2023-05-23T04:35:27;101144.91;;;24.87;100.00
6028;BME280;3042;43.194;27.646;2023-05-23T04:37:58;101157.38;;;24.73;100.00
6028;BME280;3042;43.194;27.646;2023-05-23T04:40:26;101169.78;;;24.61;100.00
6028;BME280;3042;43.194;27.646;2023-05-23T04:42:54;101170.66;;;24.59;100.00
6028;BME280;3042;43.194;27.646;2023-05-23T04:45:22;101169.66;;;24.80;100.00
6028;BME280;3042;43.194;27.646;2023-05-23T04:47:51;101171.34;;;24.84;100.00
6028;BME280;3042;43.194;27.646;2023-05-23T04:50:19;101173.09;;;24.88;100.00
6028;BME280;3042;43.194;27.646;2023-05-23T04:52:49;101185.50;;;24.77;100.00
6028;BME280;3042;43.194;27.646;2023-05-23T04:55:16;101177.44;;;24.95;100.00
6028;BME280;3042;43.194;27.646;2023-05-23T04:57:44;101197.03;;;24.68;100.00
6028;BME280;3042;43.194;27.646;2023-05-23T05:00:12;101196.19;;;24.60;100.00
6028;BME280;3042;43.194;27.646;2023-05-23T05:02:40;101178.38;;;24.88;100.00
6028;BME280;3042;43.194;27.646;2023-05-23T05:05:09;101132.59;;;24.83;100.00
6028;BME280;3042;43.194;27.646;2023-05-23T05:07:36;101179.16;;;25.01;100.00
6028;BME280;3042;43.194;27.646;2023-05-23T05:10:06;101170.16;;;25.25;100.00
6028;BME280;3042;43.194;27.646;2023-05-23T05:12:33;101169.94;;;25.45;100.00
6028;BME280;3042;43.194;27.646;2023-05-23T05:15:02;101168.84;;;25.66;100.00
6028;BME280;3042;43.194;27.646;2023-05-23T05:17:30;101164.28;;;25.80;100.00
6028;BME280;3042;43.194;27.646;2023-05-23T05:20:01;101165.06;;;25.92;100.00
6028;BME280;3042;43.194;27.646;2023-05-23T05:22:31;101166.81;;;25.93;100.00
6028;BME280;3042;43.194;27.646;2023-05-23T05:25:16;101172.13;;;25.93;100.00
6028;BME280;3042;43.194;27.646;2023-05-23T05:27:45;101174.03;;;25.78;100.00
6028;BME280;3042;43.194;27.646;2023-05-23T05:30:13;101168.56;;;25.95;100.00
6028;BME280;3042;43.194;27.646;2023-05-23T05:32:40;101168.50;;;26.00;100.00
6028;BME280;3042;43.194;27.646;2023-05-23T05:35:10;101173.78;;;26.00;100.00
6028;BME280;3042;43.194;27.646;2023-05-23T05:37:39;101176.56;;;25.90;100.00
6028;BME280;3042;43.194;27.646;2023-05-23T05:40:07;101161.28;;;26.11;100.00
6028;BME280;3042;43.194;27.646;2023-05-23T05:42:36;101148.97;;;26.08;100.00
6028;BME280;3042;43.194;27.646;2023-05-23T05:45:04;101132.88;;;26.22;100.00
6028;BME280;3042;43.194;27.646;2023-05-23T05:47:31;101168.09;;;26.30;100.00
6028;BME280;3042;43.194;27.646;2023-05-23T05:49:58;101177.13;;;26.14;100.00
6028;BME280;3042;43.194;27.646;2023-05-23T05:52:26;101184.28;;;26.07;100.00
6028;BME280;3042;43.194;27.646;2023-05-23T05:54:53;101176.53;;;25.92;100.00
6028;BME280;3042;43.194;27.646;2023-05-23T05:57:22;101176.09;;;26.24;100.00
6028;BME280;3042;43.194;27.646;2023-05-23T05:59:52;101182.13;;;26.39;100.00
6028;BME280;3042;43.194;27.646;2023-05-23T06:02:19;101181.94;;;26.51;100.00
6028;BME280;3042;43.194;27.646;2023-05-23T06:04:47;101182.78;;;26.53;100.00
6028;BME280;3042;43.194;27.646;2023-05-23T06:07:14;101181.84;;;26.57;100.00
6028;BME280;3042;43.194;27.646;2023-05-23T06:09:48;101173.88;;;26.59;100.00
6028;BME280;3042;43.194;27.646;2023-05-23T06:12:16;101168.28;;;26.79;100.00
6028;BME280;3042;43.194;27.646;2023-05-23T06:14:43;101159.84;;;27.06;100.00
6028;BME280;3042;43.194;27.646;2023-05-23T06:17:17;101153.31;;;27.29;100.00
6028;BME280;3042;43.194;27.646;2023-05-23T06:19:54;101158.59;;;27.30;100.00
6028;BME280;3042;43.194;27.646;2023-05-23T06:22:21;101153.81;;;27.49;100.00
6028;BME280;3042;43.194;27.646;2023-05-23T06:24:48;101159.28;;;27.40;100.00
6028;BME280;3042;43.194;27.646;2023-05-23T06:27:15;101158.38;;;27.41;100.00
6028;BME280;3042;43.194;27.646;2023-05-23T06:29:42;101145.25;;;27.78;100.00
6028;BME280;3042;43.194;27.646;2023-05-23T06:32:11;101158.84;;;27.63;100.00
6028;BME280;3042;43.194;27.646;2023-05-23T06:34:41;101147.78;;;27.86;100.00
6028;BME280;3042;43.194;27.646;2023-05-23T06:37:08;101094.22;;;27.63;100.00
6028;BME280;3042;43.194;27.646;2023-05-23T06:39:35;101139.63;;;28.34;100.00
6028;BME280;3042;43.194;27.646;2023-05-23T06:42:03;101085.28;;;28.09;100.00
6028;BME280;3042;43.194;27.646;2023-05-23T06:44:30;101130.13;;;28.63;100.00
6028;BME280;3042;43.194;27.646;2023-05-23T06:46:57;101129.97;;;28.69;100.00
6028;BME280;3042;43.194;27.646;2023-05-23T06:49:25;101122.91;;;28.31;100.00
6028;BME280;3042;43.194;27.646;2023-05-23T06:51:53;101144.88;;;28.37;100.00
6028;BME280;3042;43.194;27.646;2023-05-23T06:54:20;101135.66;;;28.54;100.00
6028;BME280;3042;43.194;27.646;2023-05-23T06:56:48;101135.84;;;28.45;100.00
6028;BME280;3042;43.194;27.646;2023-05-23T06:59:15;101136.84;;;28.40;100.00
6028;BME280;3042;43.194;27.646;2023-05-23T07:01:42;101121.03;;;28.73;100.00
6028;BME280;3042;43.194;27.646;2023-05-23T07:04:10;101115.38;;;28.86;100.00
6028;BME280;3042;43.194;27.646;2023-05-23T07:06:38;101120.22;;;28.70;100.00
6028;BME280;3042;43.194;27.646;2023-05-23T07:09:06;101130.41;;;28.51;100.00
6028;BME280;3042;43.194;27.646;2023-05-23T07:11:36;101140.59;;;28.30;100.00
6028;BME280;3042;43.194;27.646;2023-05-23T07:14:04;101141.63;;;28.26;100.00
6028;BME280;3042;43.194;27.646;2023-05-23T07:16:32;101126.91;;;27.68;100.00
6028;BME280;3042;43.194;27.646;2023-05-23T07:19:00;101139.59;;;27.95;100.00
6028;BME280;3042;43.194;27.646;2023-05-23T07:21:29;101131.38;;;28.08;100.00
6028;BME280;3042;43.194;27.646;2023-05-23T07:23:57;101158.69;;;27.71;100.00
6028;BME280;3042;43.194;27.646;2023-05-23T07:26:26;101143.91;;;28.03;100.00
6028;BME280;3042;43.194;27.646;2023-05-23T07:28:53;101148.78;;;27.79;100.00
6028;BME280;3042;43.194;27.646;2023-05-23T07:31:20;101155.19;;;27.69;100.00
6028;BME280;3042;43.194;27.646;2023-05-23T07:33:47;101137.97;;;27.90;100.00
6028;BME280;3042;43.194;27.646;2023-05-23T07:36:14;101140.66;;;27.88;100.00
6028;BME280;3042;43.194;27.646;2023-05-23T07:38:42;101133.28;;;28.03;100.00
6028;BME280;3042;43.194;27.646;2023-05-23T07:41:09;101136.13;;;27.93;100.00
6028;BME280;3042;43.194;27.646;2023-05-23T07:43:38;101124.31;;;28.07;100.00
6028;BME280;3042;43.194;27.646;2023-05-23T07:46:05;101130.56;;;28.04;100.00
6028;BME280;3042;43.194;27.646;2023-05-23T07:48:32;101144.25;;;27.86;100.00
6028;BME280;3042;43.194;27.646;2023-05-23T07:50:59;101126.81;;;28.14;100.00
6028;BME280;3042;43.194;27.646;2023-05-23T07:53:26;101124.09;;;28.16;100.00
6028;BME280;3042;43.194;27.646;2023-05-23T07:55:54;101126.47;;;28.28;100.00
6028;BME280;3042;43.194;27.646;2023-05-23T07:58:21;101131.22;;;28.14;100.00
6028;BME280;3042;43.194;27.646;2023-05-23T08:00:50;101133.13;;;28.09;100.00
6028;BME280;3042;43.194;27.646;2023-05-23T08:03:29;101132.91;;;28.18;100.00
6028;BME280;3042;43.194;27.646;2023-05-23T08:05:57;101102.41;;;27.95;100.00
6028;BME280;3042;43.194;27.646;2023-05-23T08:08:24;101120.91;;;28.39;100.00
6028;BME280;3042;43.194;27.646;2023-05-23T08:10:51;101114.56;;;28.45;100.00
6028;BME280;3042;43.194;27.646;2023-05-23T08:13:18;101112.84;;;28.44;100.00
6028;BME280;3042;43.194;27.646;2023-05-23T08:15:45;101096.91;;;28.79;100.00
6028;BME280;3042;43.194;27.646;2023-05-23T08:18:14;101091.69;;;28.75;100.00
6028;BME280;3042;43.194;27.646;2023-05-23T08:20:41;101084.78;;;29.02;100.00
6028;BME280;3042;43.194;27.646;2023-05-23T08:23:08;101081.38;;;28.97;100.00
6028;BME280;3042;43.194;27.646;2023-05-23T08:25:36;101098.81;;;28.74;100.00
6028;BME280;3042;43.194;27.646;2023-05-23T08:28:04;101076.84;;;29.00;100.00
6028;BME280;3042;43.194;27.646;2023-05-23T08:30:31;101057.38;;;29.31;100.00
6028;BME280;3042;43.194;27.646;2023-05-23T08:32:58;101062.50;;;29.39;100.00
6028;BME280;3042;43.194;27.646;2023-05-23T08:35:30;101067.09;;;29.34;100.00
6028;BME280;3042;43.194;27.646;2023-05-23T08:38:01;100980.00;;;29.37;100.00
6028;BME280;3042;43.194;27.646;2023-05-23T08:40:29;101062.81;;;29.89;100.00
6028;BME280;3042;43.194;27.646;2023-05-23T08:42:57;101066.41;;;29.88;100.00
6028;BME280;3042;43.194;27.646;2023-05-23T08:45:24;101042.56;;;30.40;100.00
6028;BME280;3042;43.194;27.646;2023-05-23T08:47:51;101036.94;;;30.74;100.00
6028;BME280;3042;43.194;27.646;2023-05-23T08:50:20;101028.22;;;30.96;100.00
6028;BME280;3042;43.194;27.646;2023-05-23T08:52:53;101034.38;;;30.98;100.00
6028;BME280;3042;43.194;27.646;2023-05-23T08:55:23;101063.69;;;30.46;100.00
6028;BME280;3042;43.194;27.646;2023-05-23T08:57:51;101038.66;;;29.95;100.00
6028;BME280;3042;43.194;27.646;2023-05-23T09:00:19;101061.38;;;30.35;100.00
6028;BME280;3042;43.194;27.646;2023-05-23T09:02:47;100990.97;;;30.13;100.00
6028;BME280;3042;43.194;27.646;2023-05-23T09:05:15;101054.53;;;30.53;100.00
6028;BME280;3042;43.194;27.646;2023-05-23T09:07:44;101038.88;;;30.69;100.00
6028;BME280;3042;43.194;27.646;2023-05-23T09:10:15;101068.94;;;30.21;100.00
6028;BME280;3042;43.194;27.646;2023-05-23T09:12:42;101088.91;;;29.78;100.00
6028;BME280;3042;43.194;27.646;2023-05-23T09:15:11;101097.06;;;29.40;100.00
6028;BME280;3042;43.194;27.646;2023-05-23T09:17:38;101012.00;;;29.03;100.00
6028;BME280;3042;43.194;27.646;2023-05-23T09:20:10;101085.44;;;29.43;100.00
6028;BME280;3042;43.194;27.646;2023-05-23T09:22:38;101088.69;;;29.54;100.00
6028;BME280;3042;43.194;27.646;2023-05-23T09:25:07;101084.50;;;29.45;100.00
6028;BME280;3042;43.194;27.646;2023-05-23T09:27:35;101084.13;;;29.27;100.00
6028;BME280;3042;43.194;27.646;2023-05-23T09:30:07;101109.19;;;28.85;100.00
6028;BME280;3042;43.194;27.646;2023-05-23T09:32:35;101119.69;;;28.54;100.00
6028;BME280;3042;43.194;27.646;2023-05-23T09:35:03;101074.53;;;28.87;100.00
6028;BME280;3042;43.194;27.646;2023-05-23T09:37:31;101100.41;;;28.81;100.00
6028;BME280;3042;43.194;27.646;2023-05-23T09:39:59;101097.41;;;28.94;100.00
6028;BME280;3042;43.194;27.646;2023-05-23T09:42:31;100977.63;;;27.92;100.00
6028;BME280;3042;43.194;27.646;2023-05-23T09:45:00;101103.16;;;28.78;100.00
6028;BME280;3042;43.194;27.646;2023-05-23T09:47:27;101072.50;;;28.64;100.00
6028;BME280;3042;43.194;27.646;2023-05-23T09:49:55;101118.75;;;28.56;100.00
6028;BME280;3042;43.194;27.646;2023-05-23T09:52:22;101112.50;;;28.59;100.00
6028;BME280;3042;43.194;27.646;2023-05-23T09:54:49;101132.03;;;28.19;100.00
6028;BME280;3042;43.194;27.646;2023-05-23T09:57:18;101129.00;;;28.34;100.00
6028;BME280;3042;43.194;27.646;2023-05-23T09:59:51;101108.09;;;28.58;100.00
6028;BME280;3042;43.194;27.646;2023-05-23T10:05:37;101079.84;;;29.22;100.00
6028;BME280;3042;43.194;27.646;2023-05-23T10:08:08;101077.28;;;28.83;100.00
6028;BME280;3042;43.194;27.646;2023-05-23T10:14:00;101014.03;;;28.95;100.00
6028;BME280;3042;43.194;27.646;2023-05-23T10:16:36;101061.00;;;29.60;100.00
6028;BME280;3042;43.194;27.646;2023-05-23T10:19:12;101057.00;;;29.76;100.00
6028;BME280;3042;43.194;27.646;2023-05-23T10:21:43;101050.31;;;29.91;100.00
6028;BME280;3042;43.194;27.646;2023-05-23T10:24:16;101067.22;;;29.60;100.00
6028;BME280;3042;43.194;27.646;2023-05-23T10:26:44;101044.34;;;29.53;100.00
6028;BME280;3042;43.194;27.646;2023-05-23T10:29:12;101036.31;;;29.23;100.00
6028;BME280;3042;43.194;27.646;2023-05-23T10:31:39;101055.63;;;29.32;100.00
6028;BME280;3042;43.194;27.646;2023-05-23T10:34:14;101095.06;;;29.17;100.00
6028;BME280;3042;43.194;27.646;2023-05-23T10:37:00;101109.81;;;28.95;100.00
6028;BME280;3042;43.194;27.646;2023-05-23T10:39:55;101114.66;;;28.41;100.00
6028;BME280;3042;43.194;27.646;2023-05-23T10:42:44;101151.97;;;26.44;100.00
6028;BME280;3042;43.194;27.646;2023-05-23T10:45:17;101154.44;;;25.95;100.00
6028;BME280;3042;43.194;27.646;2023-05-23T10:47:46;101160.44;;;25.27;100.00
6028;BME280;3042;43.194;27.646;2023-05-23T10:50:15;101173.88;;;24.98;100.00
6028;BME280;3042;43.194;27.646;2023-05-23T10:52:56;101180.41;;;24.43;100.00
6028;BME280;3042;43.194;27.646;2023-05-23T10:55:23;101186.66;;;24.27;100.00
6028;BME280;3042;43.194;27.646;2023-05-23T10:58:08;101095.38;;;23.72;100.00
6028;BME280;3042;43.194;27.646;2023-05-23T11:00:35;101187.41;;;24.59;100.00
6028;BME280;3042;43.194;27.646;2023-05-23T11:03:04;101185.69;;;24.52;100.00
6028;BME280;3042;43.194;27.646;2023-05-23T11:05:36;101180.16;;;24.89;100.00
6028;BME280;3042;43.194;27.646;2023-05-23T11:08:12;101177.81;;;24.34;100.00
6028;BME280;3042;43.194;27.646;2023-05-23T11:10:52;101194.50;;;24.45;100.00
6028;BME280;3042;43.194;27.646;2023-05-23T11:13:21;101202.34;;;24.63;100.00
6028;BME280;3042;43.194;27.646;2023-05-23T11:15:53;101193.34;;;24.91;100.00
6028;BME280;3042;43.194;27.646;2023-05-23T11:18:23;101202.03;;;25.08;100.00
6028;BME280;3042;43.194;27.646;2023-05-23T11:20:53;101201.72;;;25.45;100.00
6028;BME280;3042;43.194;27.646;2023-05-23T11:23:21;101207.78;;;25.58;100.00
6028;BME280;3042;43.194;27.646;2023-05-23T11:25:50;101196.94;;;25.79;100.00
6028;BME280;3042;43.194;27.646;2023-05-23T11:28:18;101203.09;;;25.81;100.00
6028;BME280;3042;43.194;27.646;2023-05-23T11:30:49;101196.03;;;25.83;100.00
6028;BME280;3042;43.194;27.646;2023-05-23T11:33:17;101191.56;;;25.88;100.00
6028;BME280;3042;43.194;27.646;2023-05-23T11:35:46;101185.69;;;26.35;100.00
6028;BME280;3042;43.194;27.646;2023-05-23T11:38:16;101194.66;;;26.24;100.00
6028;BME280;3042;43.194;27.646;2023-05-23T11:40:44;101193.03;;;26.16;100.00
6028;BME280;3042;43.194;27.646;2023-05-23T11:43:12;101172.22;;;26.50;100.00
6028;BME280;3042;43.194;27.646;2023-05-23T11:45:40;101129.31;;;26.23;100.00
6028;BME280;3042;43.194;27.646;2023-05-23T11:48:08;101182.69;;;26.62;100.00
6028;BME280;3042;43.194;27.646;2023-05-23T11:50:46;101108.25;;;26.73;100.00
6028;BME280;3042;43.194;27.646;2023-05-23T11:53:16;101073.84;;;26.71;100.00
6028;BME280;3042;43.194;27.646;2023-05-23T11:55:50;101172.41;;;27.49;100.00
6028;BME280;3042;43.194;27.646;2023-05-23T11:58:18;101167.75;;;27.61;100.00
6028;BME280;3042;43.194;27.646;2023-05-23T12:00:45;101152.50;;;27.70;100.00
6028;BME280;3042;43.194;27.646;2023-05-23T12:03:12;101154.69;;;27.50;100.00
6028;BME280;3042;43.194;27.646;2023-05-23T12:05:42;101173.25;;;27.51;100.00
6028;BME280;3042;43.194;27.646;2023-05-23T12:08:11;101105.31;;;26.90;100.00
6028;BME280;3042;43.194;27.646;2023-05-23T12:10:50;101131.00;;;26.88;100.00
6028;BME280;3042;43.194;27.646;2023-05-23T12:13:19;101182.69;;;27.15;100.00
6028;BME280;3042;43.194;27.646;2023-05-23T12:15:46;101177.28;;;27.23;100.00
6028;BME280;3042;43.194;27.646;2023-05-23T12:18:13;101182.22;;;26.91;100.00
6028;BME280;3042;43.194;27.646;2023-05-23T12:20:47;101166.41;;;27.38;100.00
6028;BME280;3042;43.194;27.646;2023-05-23T12:23:20;101133.69;;;27.38;100.00
6028;BME280;3042;43.194;27.646;2023-05-23T12:25:55;101161.50;;;27.13;100.00
6028;BME280;3042;43.194;27.646;2023-05-23T12:28:34;101164.06;;;27.21;100.00
6028;BME280;3042;43.194;27.646;2023-05-23T12:31:08;101158.03;;;27.11;100.00
6028;BME280;3042;43.194;27.646;2023-05-23T12:33:37;101153.38;;;27.24;100.00
6028;BME280;3042;43.194;27.646;2023-05-23T12:36:06;101137.81;;;27.52;100.00
6028;BME280;3042;43.194;27.646;2023-05-23T12:38:33;101102.81;;;27.77;100.00
6028;BME280;3042;43.194;27.646;2023-05-23T12:41:10;101113.69;;;28.07;100.00
6028;BME280;3042;43.194;27.646;2023-05-23T12:43:38;101027.16;;;27.09;100.00
6028;BME280;3042;43.194;27.646;2023-05-23T12:46:06;101050.06;;;27.13;100.00
6028;BME280;3042;43.194;27.646;2023-05-23T12:48:33;101144.69;;;27.13;100.00
6028;BME280;3042;43.194;27.646;2023-05-23T12:51:00;101150.81;;;27.20;100.00
6028;BME280;3042;43.194;27.646;2023-05-23T12:53:28;101143.63;;;27.25;100.00
6028;BME280;3042;43.194;27.646;2023-05-23T12:55:55;101133.53;;;27.44;100.00
6028;BME280;3042;43.194;27.646;2023-05-23T12:58:24;101132.56;;;27.49;100.00
6028;BME280;3042;43.194;27.646;2023-05-23T13:00:51;101136.59;;;27.24;100.00
6028;BME280;3042;43.194;27.646;2023-05-23T13:03:18;101051.53;;;27.30;100.00
6028;BME280;3042;43.194;27.646;2023-05-23T13:05:45;101113.75;;;28.04;100.00